createdAt,value
2018-12-15T00:00:45.039Z,83.75
2018-12-15T00:03:32.469Z,84.08
2018-12-15T00:06:19.536Z,84.25
2018-12-15T00:09:07.273Z,84.39
2018-12-15T00:11:55.457Z,84.50
2018-12-15T00:14:43.148Z,84.53
2018-12-15T00:17:30.729Z,84.57
2018-12-15T00:20:18.798Z,84.58
2018-12-15T00:23:07.293Z,83.16
2018-12-15T00:25:54.743Z,83.54
2018-12-15T00:28:42.125Z,83.72
2018-12-15T00:31:29.430Z,83.81
2018-12-15T00:34:16.303Z,83.89
2018-12-15T00:37:03.484Z,83.95
2018-12-15T00:39:50.349Z,83.98
2018-12-15T00:42:37.122Z,84.08
2018-12-15T00:48:31.298Z,84.18
2018-12-15T00:51:18.443Z,82.79
2018-12-15T00:54:05.791Z,83.18
2018-12-15T00:56:55.105Z,83.39
2018-12-15T00:59:42.805Z,83.55
2018-12-15T01:02:31.183Z,83.55
2018-12-15T01:05:23.271Z,82.18
2018-12-15T01:08:11.814Z,82.66
2018-12-15T01:10:58.990Z,83.02
2018-12-15T01:13:46.325Z,83.21
2018-12-15T01:16:34.420Z,83.35
2018-12-15T01:19:21.434Z,83.41
2018-12-15T01:22:08.789Z,83.55
2018-12-15T01:24:56.419Z,83.58
2018-12-15T01:27:44.319Z,82.13
2018-12-15T01:30:31.930Z,82.58
2018-12-15T01:33:19.416Z,82.87
2018-12-15T01:36:07.248Z,83.03
2018-12-15T01:38:54.781Z,83.19
2018-12-15T01:41:42.162Z,83.37
2018-12-15T01:44:30.372Z,81.93
2018-12-15T01:47:18.175Z,82.48
2018-12-15T01:50:05.800Z,82.70
2018-12-15T01:52:53.373Z,82.95
2018-12-15T01:55:40.958Z,83.12
2018-12-15T01:58:28.443Z,83.22
2018-12-15T02:01:15.885Z,83.36
2018-12-15T02:04:03.359Z,83.49
2018-12-15T02:06:50.937Z,83.67
2018-12-15T02:09:38.755Z,83.80
2018-12-15T02:12:27.596Z,83.90
2018-12-15T02:15:15.195Z,83.95
2018-12-15T02:18:03.440Z,84.05
2018-12-15T02:20:53.661Z,84.05
2018-12-15T02:23:41.139Z,84.01
2018-12-15T02:26:29.121Z,84.04
2018-12-15T02:29:17.441Z,82.70
2018-12-15T02:32:05.174Z,81.51
2018-12-15T02:34:54.293Z,80.58
2018-12-15T02:37:41.393Z,81.48
2018-12-15T02:40:28.723Z,81.96
2018-12-15T02:43:25.485Z,82.47
2018-12-15T02:46:13.026Z,82.80
2018-12-15T02:49:03.139Z,83.05
2018-12-15T02:51:53.457Z,83.19
2018-12-15T02:54:46.025Z,81.83
2018-12-15T02:57:33.947Z,82.48
2018-12-15T03:00:21.802Z,82.84
2018-12-15T03:03:08.456Z,83.04
2018-12-15T03:05:55.368Z,83.26
2018-12-15T03:08:42.855Z,83.47
2018-12-15T03:11:30.663Z,83.61
2018-12-15T03:14:17.896Z,83.68
2018-12-15T03:17:13.407Z,83.79
2018-12-15T03:20:00.520Z,83.99
2018-12-15T03:22:50.209Z,84.02
2018-12-15T03:25:37.641Z,84.10
2018-12-15T03:28:26.811Z,84.24
2018-12-15T03:31:14.170Z,82.82
2018-12-15T03:34:02.255Z,83.31
2018-12-15T03:36:49.724Z,83.59
2018-12-15T03:39:36.993Z,83.73
2018-12-15T03:42:25.425Z,83.84
2018-12-15T03:45:12.605Z,82.51
2018-12-15T03:48:00.367Z,83.01
2018-12-15T03:50:47.799Z,81.75
2018-12-15T03:53:35.324Z,82.41
2018-12-15T03:56:22.745Z,82.83
2018-12-15T03:59:19.393Z,83.13
2018-12-15T04:02:06.452Z,83.34
2018-12-15T04:04:53.744Z,83.56
2018-12-15T04:07:41.067Z,83.69
2018-12-15T04:10:28.334Z,83.78
2018-12-15T04:13:15.713Z,83.92
2018-12-15T04:16:02.583Z,84.01
2018-12-15T04:18:50.621Z,84.10
2018-12-15T04:21:37.432Z,84.09
2018-12-15T04:24:25.042Z,84.09
2018-12-15T04:27:20.021Z,84.09
2018-12-15T04:30:07.213Z,84.10
2018-12-15T04:32:54.568Z,84.09
2018-12-15T04:35:41.568Z,84.11
2018-12-15T04:38:28.930Z,84.14
2018-12-15T04:41:15.736Z,84.09
2018-12-15T04:44:02.854Z,84.03
2018-12-15T04:46:50.445Z,84.03
2018-12-15T04:49:37.906Z,84.02
2018-12-15T04:52:24.828Z,84.03
2018-12-15T04:55:11.824Z,84.04
2018-12-15T04:57:59.151Z,84.05
2018-12-15T05:00:46.370Z,84.04
2018-12-15T05:03:33.415Z,84.00
2018-12-15T05:06:20.776Z,84.00
2018-12-15T05:09:08.231Z,83.96
2018-12-15T05:11:55.681Z,83.96
2018-12-15T05:14:43.265Z,83.92
2018-12-15T05:17:30.708Z,83.91
2018-12-15T05:20:18.716Z,83.91
2018-12-15T05:23:06.448Z,83.85
2018-12-15T05:25:56.318Z,83.83
2018-12-15T05:28:49.521Z,83.79
2018-12-15T05:31:36.694Z,83.75
2018-12-15T05:34:24.426Z,83.74
2018-12-15T05:37:11.433Z,83.79
2018-12-15T05:39:58.934Z,83.80
2018-12-15T05:42:47.191Z,83.78
2018-12-15T05:45:34.266Z,83.79
2018-12-15T05:48:25.079Z,83.81
2018-12-15T05:54:17.213Z,83.90
2018-12-15T05:57:06.100Z,83.94
2018-12-15T05:59:53.331Z,83.72
2018-12-15T06:02:40.702Z,82.22
2018-12-15T06:05:28.021Z,82.33
2018-12-15T06:08:14.976Z,82.26
2018-12-15T06:11:02.443Z,82.30
2018-12-15T06:13:49.683Z,82.44
2018-12-15T06:16:37.199Z,82.45
2018-12-15T06:19:24.256Z,82.54
2018-12-15T06:22:11.406Z,82.63
2018-12-15T06:24:59.062Z,82.71
2018-12-15T06:27:46.263Z,82.71
2018-12-15T06:30:36.746Z,82.65
2018-12-15T06:33:25.794Z,82.66
2018-12-15T06:36:12.750Z,82.80
2018-12-15T06:39:10.246Z,82.91
2018-12-15T06:41:57.113Z,82.95
2018-12-15T06:44:45.490Z,82.86
2018-12-15T06:47:33.425Z,82.87
2018-12-15T06:50:21.594Z,82.91
2018-12-15T06:53:08.708Z,82.92
2018-12-15T06:55:55.992Z,82.67
2018-12-15T06:58:43.446Z,82.67
2018-12-15T07:01:30.679Z,82.72
2018-12-15T07:04:18.170Z,82.73
2018-12-15T07:07:05.301Z,82.75
2018-12-15T07:09:53.141Z,82.51
2018-12-15T07:12:40.171Z,82.17
2018-12-15T07:15:28.182Z,82.24
2018-12-15T07:18:15.377Z,82.21
2018-12-15T07:21:05.117Z,82.12
2018-12-15T07:23:53.769Z,80.70
2018-12-15T07:26:41.866Z,80.86
2018-12-15T07:29:29.144Z,81.13
2018-12-15T07:32:16.687Z,81.18
2018-12-15T07:35:03.722Z,81.30
2018-12-15T07:37:52.076Z,81.40
2018-12-15T07:40:39.679Z,81.45
2018-12-15T07:43:32.691Z,81.54
2018-12-15T07:46:19.939Z,81.57
2018-12-15T07:49:07.227Z,81.64
2018-12-15T07:51:54.496Z,81.78
2018-12-15T07:54:41.948Z,81.69
2018-12-15T07:57:29.668Z,81.67
2018-12-15T08:00:19.676Z,80.28
2018-12-15T08:03:07.709Z,78.94
2018-12-15T08:05:54.739Z,79.62
2018-12-15T08:08:42.092Z,79.96
2018-12-15T08:11:47.524Z,80.21
2018-12-15T08:14:35.291Z,80.44
2018-12-15T08:17:31.228Z,80.70
2018-12-15T08:20:18.037Z,80.88
2018-12-15T08:23:05.781Z,81.04
2018-12-15T08:28:58.985Z,79.29
2018-12-15T08:31:46.500Z,79.72
2018-12-15T08:34:33.327Z,79.89
2018-12-15T08:37:20.185Z,80.20
2018-12-15T08:40:07.761Z,80.47
2018-12-15T08:42:55.196Z,78.44
2018-12-15T08:45:44.767Z,79.00
2018-12-15T08:48:33.253Z,79.41
2018-12-15T08:51:20.547Z,79.56
2018-12-15T08:54:11.601Z,79.73
2018-12-15T08:56:58.835Z,80.00
2018-12-15T08:59:46.114Z,79.98
2018-12-15T09:02:33.233Z,79.91
2018-12-15T09:05:20.456Z,78.54
2018-12-15T09:08:07.626Z,79.02
2018-12-15T09:10:54.777Z,77.42
2018-12-15T09:13:43.233Z,76.24
2018-12-15T09:16:30.549Z,75.14
2018-12-15T09:19:25.399Z,76.32
2018-12-15T09:22:12.254Z,77.29
2018-12-15T09:24:59.139Z,77.64
2018-12-15T09:27:46.529Z,77.96
2018-12-15T09:30:33.734Z,78.32
2018-12-15T09:33:21.838Z,78.43
2018-12-15T09:39:18.494Z,78.74
2018-12-15T09:42:07.134Z,78.30
2018-12-15T09:44:54.658Z,78.06
2018-12-15T09:50:47.346Z,78.13
2018-12-15T09:53:34.729Z,78.29
2018-12-15T09:56:21.537Z,78.44
2018-12-15T09:59:08.589Z,78.79
2018-12-15T10:01:55.674Z,78.95
2018-12-15T10:04:42.860Z,78.73
2018-12-15T10:07:29.995Z,78.77
2018-12-15T10:10:17.276Z,78.44
2018-12-15T10:13:04.452Z,78.67
2018-12-15T10:15:51.510Z,76.55
2018-12-15T10:18:38.360Z,74.66
2018-12-15T10:21:26.709Z,75.75
2018-12-15T10:24:13.786Z,76.39
2018-12-15T10:27:00.649Z,76.68
2018-12-15T10:30:05.967Z,77.07
2018-12-15T10:32:54.278Z,74.83
2018-12-15T10:35:41.212Z,75.78
2018-12-15T10:38:28.523Z,75.78
2018-12-15T10:41:15.374Z,76.08
2018-12-15T10:44:02.430Z,74.23
2018-12-15T10:46:50.081Z,75.24
2018-12-15T10:49:36.976Z,75.85
2018-12-15T10:52:24.115Z,76.25
2018-12-15T10:55:11.318Z,76.54
2018-12-15T10:57:58.637Z,76.35
2018-12-15T11:00:57.624Z,76.75
2018-12-15T11:03:44.578Z,74.49
2018-12-15T11:06:31.850Z,75.51
2018-12-15T11:09:19.182Z,75.77
2018-12-15T11:12:06.698Z,76.47
2018-12-15T11:14:56.999Z,76.62
2018-12-15T11:17:45.018Z,76.63
2018-12-15T11:20:32.248Z,77.01
2018-12-15T11:23:19.618Z,77.38
2018-12-15T11:26:07.404Z,77.76
2018-12-15T11:28:54.722Z,77.91
2018-12-15T11:34:49.724Z,78.06
2018-12-15T11:40:42.056Z,77.92
2018-12-15T11:43:30.835Z,78.01
2018-12-15T11:46:16.452Z,78.18
2018-12-15T11:49:03.545Z,78.34
2018-12-15T11:54:57.116Z,78.17
2018-12-15T11:57:50.307Z,78.44
2018-12-15T12:00:40.003Z,78.27
2018-12-15T12:03:26.998Z,78.40
2018-12-15T12:06:14.100Z,78.43
2018-12-15T12:09:01.490Z,78.37
2018-12-15T12:11:49.023Z,76.22
2018-12-15T12:14:36.165Z,77.13
2018-12-15T12:17:23.010Z,77.18
2018-12-15T12:20:10.016Z,77.50
2018-12-15T12:22:57.114Z,77.66
2018-12-15T12:25:46.380Z,77.65
2018-12-15T12:28:34.338Z,77.86
2018-12-15T12:31:21.352Z,77.97
2018-12-15T12:34:08.502Z,78.00
2018-12-15T12:36:56.044Z,78.09
2018-12-15T12:39:46.016Z,78.23
2018-12-15T12:42:33.665Z,78.22
2018-12-15T12:45:20.897Z,78.55
2018-12-15T12:48:07.837Z,76.39
2018-12-15T12:50:55.476Z,77.34
2018-12-15T12:58:54.562Z,74.67
2018-12-15T13:01:42.067Z,73.81
2018-12-15T13:04:29.192Z,72.99
2018-12-15T13:07:16.812Z,74.83
2018-12-15T13:10:04.462Z,75.73
2018-12-15T13:12:52.136Z,73.96
2018-12-15T13:15:39.813Z,75.34
2018-12-15T13:18:26.938Z,76.35
2018-12-15T13:21:14.430Z,76.87
2018-12-15T13:24:01.594Z,77.25
2018-12-15T13:26:48.414Z,77.49
2018-12-15T13:29:35.642Z,77.67
2018-12-15T13:32:22.954Z,77.88
2018-12-15T13:35:10.171Z,77.90
2018-12-15T13:37:57.395Z,78.08
2018-12-15T13:40:44.503Z,78.17
2018-12-15T13:43:31.759Z,78.67
2018-12-15T13:46:20.272Z,76.87
2018-12-15T13:49:08.958Z,77.95
2018-12-15T13:51:56.226Z,78.40
2018-12-15T13:54:43.497Z,78.63
2018-12-15T13:57:30.384Z,78.82
2018-12-15T14:03:35.721Z,79.19
2018-12-15T14:06:23.754Z,79.25
2018-12-15T14:09:10.723Z,79.32
2018-12-15T14:11:59.936Z,79.47
2018-12-15T14:14:50.149Z,79.49
2018-12-15T14:17:37.525Z,79.77
2018-12-15T14:20:24.868Z,79.94
2018-12-15T14:23:15.661Z,80.14
2018-12-15T14:26:02.852Z,80.30
2018-12-15T14:28:50.723Z,80.56
2018-12-15T14:31:38.289Z,80.74
2018-12-15T14:34:25.606Z,80.88
2018-12-15T14:37:13.011Z,79.10
2018-12-15T14:40:00.609Z,80.05
2018-12-15T14:42:48.480Z,78.50
2018-12-15T14:45:36.003Z,79.61
2018-12-15T14:48:23.532Z,80.19
2018-12-15T14:51:23.296Z,80.45
2018-12-15T14:54:10.824Z,80.89
2018-12-15T14:56:57.942Z,81.12
2018-12-15T14:59:44.751Z,79.34
2018-12-15T15:05:40.811Z,80.71
2018-12-15T15:08:33.035Z,80.91
2018-12-15T15:11:23.473Z,81.16
2018-12-15T15:14:11.175Z,79.51
2018-12-15T15:17:05.589Z,78.43
2018-12-15T15:19:53.605Z,79.69
2018-12-15T15:22:41.255Z,80.27
2018-12-15T15:25:39.899Z,78.69
2018-12-15T15:28:27.766Z,79.74
2018-12-15T15:31:30.664Z,80.26
2018-12-15T15:34:20.847Z,80.65
2018-12-15T15:37:13.368Z,80.94
2018-12-15T15:40:01.198Z,81.00
2018-12-15T15:42:49.221Z,81.14
2018-12-15T15:45:37.119Z,79.55
2018-12-15T15:48:24.720Z,80.33
2018-12-15T15:51:12.251Z,80.71
2018-12-15T15:53:59.470Z,81.20
2018-12-15T15:56:47.089Z,81.66
2018-12-15T15:59:40.957Z,81.81
2018-12-15T16:02:27.963Z,82.22
2018-12-15T16:05:16.176Z,82.41
2018-12-15T16:08:04.456Z,82.54
2018-12-15T16:10:54.411Z,82.57
2018-12-15T16:13:42.617Z,80.98
2018-12-15T16:16:42.105Z,81.59
2018-12-15T16:19:29.475Z,81.89
2018-12-15T16:22:17.196Z,82.10
2018-12-15T16:25:04.357Z,82.47
2018-12-15T16:27:52.175Z,81.01
2018-12-15T16:30:43.053Z,81.89
2018-12-15T16:33:33.627Z,82.43
2018-12-15T16:36:21.293Z,82.77
2018-12-15T16:39:08.765Z,83.00
2018-12-15T16:41:55.944Z,83.14
2018-12-15T16:44:43.637Z,81.58
2018-12-15T16:47:31.142Z,82.32
2018-12-15T16:50:33.632Z,80.96
2018-12-15T16:53:20.622Z,82.04
2018-12-15T16:56:09.983Z,82.47
2018-12-15T16:58:59.113Z,82.69
2018-12-15T17:01:54.068Z,82.82
2018-12-15T17:04:41.140Z,81.24
2018-12-15T17:07:28.097Z,81.80
2018-12-15T17:10:15.866Z,82.12
2018-12-15T17:13:03.933Z,82.49
2018-12-15T17:15:52.881Z,82.94
2018-12-15T17:21:47.214Z,83.41
2018-12-15T17:24:34.468Z,83.70
2018-12-15T17:27:22.236Z,83.92
2018-12-15T17:30:09.227Z,83.92
2018-12-15T17:32:56.197Z,83.92
2018-12-15T17:35:44.916Z,84.02
2018-12-15T17:38:32.568Z,84.23
2018-12-15T17:41:19.376Z,84.44
2018-12-15T17:44:06.430Z,84.50
2018-12-15T17:46:53.743Z,84.36
2018-12-15T17:49:41.323Z,84.54
2018-12-15T17:52:28.710Z,83.05
2018-12-15T17:55:17.861Z,83.50
2018-12-15T17:58:05.253Z,83.58
2018-12-15T18:00:52.880Z,83.56
2018-12-15T18:03:40.186Z,82.32
2018-12-15T18:06:27.098Z,82.92
2018-12-15T18:09:30.956Z,83.24
2018-12-15T18:15:25.235Z,83.71
2018-12-15T18:18:17.350Z,83.85
2018-12-15T18:21:09.935Z,84.21
2018-12-15T18:23:55.106Z,84.20
2018-12-15T18:26:42.382Z,84.21
2018-12-15T18:29:29.834Z,84.10
2018-12-15T18:32:17.122Z,84.08
2018-12-15T18:35:04.368Z,84.06
2018-12-15T18:37:51.516Z,84.21
2018-12-15T18:40:39.192Z,84.29
2018-12-15T18:43:26.473Z,84.41
2018-12-15T18:46:13.683Z,84.29
2018-12-15T18:49:17.291Z,84.30
2018-12-15T18:52:13.403Z,82.90
2018-12-15T18:55:01.669Z,83.52
2018-12-15T18:57:51.977Z,82.48
2018-12-15T19:00:44.391Z,83.16
2018-12-15T19:03:31.242Z,82.06
2018-12-15T19:06:18.392Z,82.83
2018-12-15T19:09:05.307Z,83.29
2018-12-15T19:11:52.785Z,83.61
2018-12-15T19:14:43.009Z,84.07
2018-12-15T19:17:30.403Z,83.03
2018-12-15T19:20:25.710Z,84.07
2018-12-15T19:26:18.623Z,84.97
2018-12-15T19:29:05.838Z,85.02
2018-12-15T19:31:52.997Z,84.99
2018-12-15T19:34:40.405Z,85.05
2018-12-15T19:37:27.509Z,85.04
2018-12-15T19:40:15.027Z,85.11
2018-12-15T19:43:01.918Z,85.19
2018-12-15T19:45:49.403Z,84.35
2018-12-15T19:48:39.390Z,85.12
2018-12-15T19:51:29.703Z,85.43
2018-12-15T19:54:13.886Z,84.50
2018-12-15T19:57:00.751Z,85.28
2018-12-15T19:59:48.021Z,85.57
2018-12-15T20:02:35.483Z,86.03
2018-12-15T20:05:22.513Z,86.25
2018-12-15T20:08:09.961Z,86.10
2018-12-15T20:10:58.987Z,86.01
2018-12-15T20:13:46.204Z,85.98
2018-12-15T20:16:34.133Z,85.10
2018-12-15T20:19:29.850Z,84.53
2018-12-15T20:22:17.129Z,85.31
2018-12-15T20:25:04.393Z,85.74
2018-12-15T20:27:54.092Z,86.21
2018-12-15T20:30:57.239Z,86.28
2018-12-15T20:33:44.138Z,86.45
2018-12-15T20:36:33.437Z,85.45
2018-12-15T20:39:20.644Z,86.50
2018-12-15T20:42:08.120Z,86.86
2018-12-15T20:44:55.387Z,87.21
2018-12-15T20:47:42.802Z,86.17
2018-12-15T20:50:30.035Z,86.89
2018-12-15T20:53:18.061Z,87.17
2018-12-15T21:05:45.446Z,86.98
2018-12-15T21:08:34.613Z,87.07
2018-12-15T21:11:24.253Z,87.16
2018-12-15T21:14:09.260Z,87.24
2018-12-15T21:16:57.570Z,86.10
2018-12-15T21:19:48.039Z,86.59
2018-12-15T21:22:34.029Z,85.51
2018-12-15T21:25:21.440Z,86.07
2018-12-15T21:28:08.959Z,86.27
2018-12-15T21:30:56.365Z,86.44
2018-12-15T21:33:45.710Z,86.65
2018-12-15T21:36:34.660Z,86.82
2018-12-15T21:39:22.050Z,86.99
2018-12-15T21:42:09.573Z,87.06
2018-12-15T21:44:56.859Z,87.09
2018-12-15T21:47:45.408Z,87.27
2018-12-15T21:50:32.245Z,87.28
2018-12-15T21:53:19.299Z,87.41
2018-12-15T21:56:06.849Z,87.85
2018-12-15T21:58:54.327Z,87.88
2018-12-15T22:07:57.097Z,86.96
2018-12-15T22:10:43.677Z,87.10
2018-12-15T22:13:30.443Z,87.17
2018-12-15T22:19:23.174Z,87.27
2018-12-15T22:22:13.111Z,87.36
2018-12-15T22:25:10.580Z,87.44
2018-12-15T22:27:57.540Z,86.17
2018-12-15T22:30:44.373Z,86.70
2018-12-15T22:33:33.393Z,86.80
2018-12-15T22:36:20.814Z,86.86
2018-12-15T22:39:08.193Z,86.87
2018-12-15T22:41:55.030Z,86.92
2018-12-15T22:44:42.168Z,86.96
2018-12-15T22:47:29.316Z,87.08
2018-12-15T22:50:18.392Z,87.10
2018-12-15T22:53:05.490Z,87.08
2018-12-15T22:55:52.869Z,87.10
2018-12-15T22:58:39.949Z,87.11
2018-12-15T23:01:38.636Z,87.12
2018-12-15T23:04:26.926Z,87.09
2018-12-15T23:07:21.028Z,87.07
2018-12-15T23:10:11.212Z,87.02
2018-12-15T23:13:01.866Z,87.00
2018-12-15T23:15:52.282Z,86.96
2018-12-15T23:18:39.334Z,86.97
2018-12-15T23:21:27.685Z,86.99
2018-12-15T23:27:25.122Z,87.00
2018-12-15T23:30:15.099Z,87.01
2018-12-15T23:33:02.537Z,87.03
2018-12-15T23:42:12.445Z,85.69
2018-12-15T23:44:59.690Z,86.07
2018-12-15T23:47:46.995Z,86.22
2018-12-15T23:50:38.513Z,86.29
2018-12-15T23:53:26.008Z,86.42
2018-12-15T23:56:13.095Z,86.46
2018-12-15T23:59:00.058Z,85.28
